sensor_id;sensor_type;location;lat;lon;timestamp;pressure;altitude;pressure_sealevel;temperature;humidity
80839;BME280;70253;50.262;-5.062;2023-07-13T00:01:42;101479.54;;;35.12;16.61
80839;BME280;70253;50.262;-5.062;2023-07-13T00:04:08;101477.65;;;34.90;16.61
80839;BME280;70253;50.262;-5.062;2023-07-13T00:06:33;101477.21;;;35.14;16.54
80839;BME280;70253;50.262;-5.062;2023-07-13T00:08:59;101481.52;;;35.10;16.54
80839;BME280;70253;50.262;-5.062;2023-07-13T00:11:24;101478.64;;;35.14;16.51
80839;BME280;70253;50.262;-5.062;2023-07-13T00:13:50;101482.64;;;35.17;16.47
80839;BME280;70253;50.262;-5.062;2023-07-13T00:16:15;101482.22;;;35.16;16.56
80839;BME280;70253;50.262;-5.062;2023-07-13T00:18:40;101482.43;;;35.15;16.55
80839;BME280;70253;50.262;-5.062;2023-07-13T00:21:06;101479.96;;;35.16;16.60
80839;BME280;70253;50.262;-5.062;2023-07-13T00:23:31;101479.45;;;35.65;16.63
80839;BME280;70253;50.262;-5.062;2023-07-13T00:25:56;101474.88;;;35.16;16.65
80839;BME280;70253;50.262;-5.062;2023-07-13T00:28:22;101472.21;;;35.17;16.64
80839;BME280;70253;50.262;-5.062;2023-07-13T00:30:47;101471.05;;;35.37;16.67
80839;BME280;70253;50.262;-5.062;2023-07-13T00:33:12;101466.73;;;35.11;16.71
80839;BME280;70253;50.262;-5.062;2023-07-13T00:35:38;101464.79;;;35.11;16.70
80839;BME280;70253;50.262;-5.062;2023-07-13T00:38:03;101462.28;;;35.11;16.71
80839;BME280;70253;50.262;-5.062;2023-07-13T00:40:28;101457.25;;;35.11;16.71
80839;BME280;70253;50.262;-5.062;2023-07-13T00:42:58;101456.29;;;35.10;16.73
80839;BME280;70253;50.262;-5.062;2023-07-13T00:47:45;101454.63;;;35.07;16.72
80839;BME280;70253;50.262;-5.062;2023-07-13T00:50:13;101454.59;;;35.31;16.68
80839;BME280;70253;50.262;-5.062;2023-07-13T00:52:38;101457.85;;;35.06;16.68
80839;BME280;70253;50.262;-5.062;2023-07-13T00:55:01;101461.96;;;34.81;16.72
80839;BME280;70253;50.262;-5.062;2023-07-13T00:57:26;101463.07;;;35.05;16.73
80839;BME280;70253;50.262;-5.062;2023-07-13T00:59:57;101460.17;;;34.99;16.72
80839;BME280;70253;50.262;-5.062;2023-07-13T01:02:17;101461.64;;;34.99;16.73
80839;BME280;70253;50.262;-5.062;2023-07-13T01:04:42;101461.07;;;34.98;16.77
80839;BME280;70253;50.262;-5.062;2023-07-13T01:07:08;101461.20;;;34.96;16.77
80839;BME280;70253;50.262;-5.062;2023-07-13T01:09:33;101461.50;;;34.96;16.72
80839;BME280;70253;50.262;-5.062;2023-07-13T01:11:58;101457.25;;;34.97;16.71
80839;BME280;70253;50.262;-5.062;2023-07-13T01:14:24;101459.01;;;34.97;16.68
80839;BME280;70253;50.262;-5.062;2023-07-13T01:16:50;101460.74;;;35.19;16.71
80839;BME280;70253;50.262;-5.062;2023-07-13T01:19:27;101462.41;;;34.95;16.74
80839;BME280;70253;50.262;-5.062;2023-07-13T01:21:40;101460.83;;;34.94;16.71
80839;BME280;70253;50.262;-5.062;2023-07-13T01:24:06;101459.38;;;34.92;16.76
80839;BME280;70253;50.262;-5.062;2023-07-13T01:26:30;101457.61;;;34.93;16.76
80839;BME280;70253;50.262;-5.062;2023-07-13T01:28:56;101457.12;;;34.98;16.69
80839;BME280;70253;50.262;-5.062;2023-07-13T01:31:21;101456.54;;;34.97;16.67
80839;BME280;70253;50.262;-5.062;2023-07-13T01:33:46;101454.29;;;34.92;16.78
80839;BME280;70253;50.262;-5.062;2023-07-13T01:36:12;101452.24;;;34.96;16.76
80839;BME280;70253;50.262;-5.062;2023-07-13T01:38:37;101451.29;;;35.17;16.78
80839;BME280;70253;50.262;-5.062;2023-07-13T01:41:03;101449.33;;;35.14;16.83
80839;BME280;70253;50.262;-5.062;2023-07-13T01:43:28;101448.33;;;34.93;16.75
80839;BME280;70253;50.262;-5.062;2023-07-13T01:45:53;101443.89;;;34.91;16.72
80839;BME280;70253;50.262;-5.062;2023-07-13T01:48:19;101442.70;;;34.94;16.69
80839;BME280;70253;50.262;-5.062;2023-07-13T01:50:44;101439.25;;;34.93;16.71
80839;BME280;70253;50.262;-5.062;2023-07-13T01:53:09;101441.18;;;34.97;16.67
80839;BME280;70253;50.262;-5.062;2023-07-13T01:55:35;101442.95;;;35.01;16.65
80839;BME280;70253;50.262;-5.062;2023-07-13T01:58:00;101440.45;;;35.00;16.68
80839;BME280;70253;50.262;-5.062;2023-07-13T02:00:25;101439.10;;;34.98;16.69
80839;BME280;70253;50.262;-5.062;2023-07-13T02:02:51;101436.42;;;34.95;16.69
80839;BME280;70253;50.262;-5.062;2023-07-13T02:05:16;101435.34;;;34.90;16.67
80839;BME280;70253;50.262;-5.062;2023-07-13T02:07:42;101435.04;;;34.89;16.70
80839;BME280;70253;50.262;-5.062;2023-07-13T02:10:10;101434.77;;;34.88;16.68
80839;BME280;70253;50.262;-5.062;2023-07-13T02:12:33;101436.47;;;34.85;16.72
80839;BME280;70253;50.262;-5.062;2023-07-13T02:14:58;101433.78;;;35.10;16.68
80839;BME280;70253;50.262;-5.062;2023-07-13T02:17:23;101432.28;;;34.87;16.70
80839;BME280;70253;50.262;-5.062;2023-07-13T02:19:49;101434.51;;;34.89;16.65
80839;BME280;70253;50.262;-5.062;2023-07-13T02:22:14;101435.16;;;34.89;16.69
80839;BME280;70253;50.262;-5.062;2023-07-13T02:24:39;101434.84;;;35.17;16.65
80839;BME280;70253;50.262;-5.062;2023-07-13T02:27:06;101433.44;;;34.94;16.65
80839;BME280;70253;50.262;-5.062;2023-07-13T02:29:30;101432.15;;;34.95;16.64
80839;BME280;70253;50.262;-5.062;2023-07-13T02:31:55;101432.00;;;34.89;16.66
80839;BME280;70253;50.262;-5.062;2023-07-13T02:34:21;101432.96;;;34.89;16.68
80839;BME280;70253;50.262;-5.062;2023-07-13T02:36:46;101433.94;;;35.14;16.66
80839;BME280;70253;50.262;-5.062;2023-07-13T02:39:13;101433.99;;;34.90;16.65
80839;BME280;70253;50.262;-5.062;2023-07-13T02:41:37;101431.31;;;35.10;16.70
80839;BME280;70253;50.262;-5.062;2023-07-13T02:44:03;101429.22;;;34.85;16.69
80839;BME280;70253;50.262;-5.062;2023-07-13T02:46:28;101425.63;;;34.88;16.65
80839;BME280;70253;50.262;-5.062;2023-07-13T02:48:53;101427.79;;;34.87;16.65
80839;BME280;70253;50.262;-5.062;2023-07-13T02:51:18;101426.13;;;34.63;16.61
80839;BME280;70253;50.262;-5.062;2023-07-13T02:53:44;101426.00;;;34.84;16.65
80839;BME280;70253;50.262;-5.062;2023-07-13T02:56:09;101428.21;;;34.57;16.64
80839;BME280;70253;50.262;-5.062;2023-07-13T02:58:35;101426.09;;;34.82;16.61
80839;BME280;70253;50.262;-5.062;2023-07-13T03:01:06;101424.71;;;34.81;16.63
80839;BME280;70253;50.262;-5.062;2023-07-13T03:03:26;101427.65;;;34.81;16.61
80839;BME280;70253;50.262;-5.062;2023-07-13T03:05:58;101423.80;;;34.81;16.58
80839;BME280;70253;50.262;-5.062;2023-07-13T03:08:16;101424.64;;;35.27;16.60
80839;BME280;70253;50.262;-5.062;2023-07-13T03:10:42;101423.78;;;35.01;16.59
80839;BME280;70253;50.262;-5.062;2023-07-13T03:13:07;101423.34;;;35.00;16.58
80839;BME280;70253;50.262;-5.062;2023-07-13T03:15:32;101425.74;;;34.78;16.59
80839;BME280;70253;50.262;-5.062;2023-07-13T03:17:58;101423.24;;;34.77;16.57
80839;BME280;70253;50.262;-5.062;2023-07-13T03:20:23;101424.21;;;34.99;16.59
80839;BME280;70253;50.262;-5.062;2023-07-13T03:22:48;101424.61;;;34.97;16.63
80839;BME280;70253;50.262;-5.062;2023-07-13T03:25:14;101426.02;;;34.96;16.65
80839;BME280;70253;50.262;-5.062;2023-07-13T03:27:39;101422.88;;;34.93;16.69
80839;BME280;70253;50.262;-5.062;2023-07-13T03:30:06;101421.92;;;34.93;16.71
80839;BME280;70253;50.262;-5.062;2023-07-13T03:32:30;101421.73;;;34.71;16.69
80839;BME280;70253;50.262;-5.062;2023-07-13T03:34:55;101421.62;;;34.95;16.67
80839;BME280;70253;50.262;-5.062;2023-07-13T03:37:20;101424.58;;;34.69;16.69
80839;BME280;70253;50.262;-5.062;2023-07-13T03:39:46;101419.07;;;34.72;16.68
80839;BME280;70253;50.262;-5.062;2023-07-13T03:42:11;101422.21;;;34.71;16.69
80839;BME280;70253;50.262;-5.062;2023-07-13T03:44:39;101432.33;;;34.69;16.70
80839;BME280;70253;50.262;-5.062;2023-07-13T03:47:02;101432.46;;;34.70;16.67
80839;BME280;70253;50.262;-5.062;2023-07-13T03:49:27;101430.49;;;34.71;16.68
80839;BME280;70253;50.262;-5.062;2023-07-13T03:51:53;101428.86;;;34.95;16.67
80839;BME280;70253;50.262;-5.062;2023-07-13T03:54:18;101426.88;;;34.74;16.62
80839;BME280;70253;50.262;-5.062;2023-07-13T03:56:43;101423.87;;;34.72;16.61
80839;BME280;70253;50.262;-5.062;2023-07-13T03:59:09;101423.81;;;34.73;16.59
80839;BME280;70253;50.262;-5.062;2023-07-13T04:01:34;101427.04;;;34.69;16.64
80839;BME280;70253;50.262;-5.062;2023-07-13T04:03:59;101429.20;;;34.95;16.58
80839;BME280;70253;50.262;-5.062;2023-07-13T04:06:28;101430.50;;;34.68;16.58
80839;BME280;70253;50.262;-5.062;2023-07-13T04:08:52;101432.26;;;34.66;16.59
80839;BME280;70253;50.262;-5.062;2023-07-13T04:11:16;101431.20;;;34.91;16.57
80839;BME280;70253;50.262;-5.062;2023-07-13T04:13:41;101433.08;;;34.66;16.57
80839;BME280;70253;50.262;-5.062;2023-07-13T04:16:06;101435.28;;;34.91;16.56
80839;BME280;70253;50.262;-5.062;2023-07-13T04:18:31;101435.82;;;34.67;16.60
80839;BME280;70253;50.262;-5.062;2023-07-13T04:20:57;101439.53;;;34.64;16.56
80839;BME280;70253;50.262;-5.062;2023-07-13T04:23:22;101440.77;;;34.87;16.60
80839;BME280;70253;50.262;-5.062;2023-07-13T04:25:49;101442.21;;;34.88;16.62
80839;BME280;70253;50.262;-5.062;2023-07-13T04:28:13;101442.58;;;34.88;16.60
80839;BME280;70253;50.262;-5.062;2023-07-13T04:30:38;101443.45;;;34.64;16.61
80839;BME280;70253;50.262;-5.062;2023-07-13T04:33:04;101442.82;;;34.61;16.63
80839;BME280;70253;50.262;-5.062;2023-07-13T04:35:29;101444.56;;;34.86;16.63
80839;BME280;70253;50.262;-5.062;2023-07-13T04:37:54;101445.88;;;34.63;16.65
80839;BME280;70253;50.262;-5.062;2023-07-13T04:40:20;101449.03;;;34.65;16.63
80839;BME280;70253;50.262;-5.062;2023-07-13T04:42:46;101450.33;;;34.66;16.63
80839;BME280;70253;50.262;-5.062;2023-07-13T04:45:12;101449.91;;;34.68;16.61
80839;BME280;70253;50.262;-5.062;2023-07-13T04:47:36;101451.37;;;34.68;16.61
80839;BME280;70253;50.262;-5.062;2023-07-13T04:50:02;101454.57;;;34.68;16.60
80839;BME280;70253;50.262;-5.062;2023-07-13T04:52:27;101450.64;;;34.69;16.60
80839;BME280;70253;50.262;-5.062;2023-07-13T04:54:52;101451.50;;;34.66;16.64
80839;BME280;70253;50.262;-5.062;2023-07-13T04:57:18;101458.92;;;34.68;16.60
80839;BME280;70253;50.262;-5.062;2023-07-13T04:59:43;101458.54;;;34.70;16.57
80839;BME280;70253;50.262;-5.062;2023-07-13T05:02:08;101452.94;;;34.70;16.57
80839;BME280;70253;50.262;-5.062;2023-07-13T05:04:34;101454.79;;;34.71;16.54
80839;BME280;70253;50.262;-5.062;2023-07-13T05:06:59;101459.41;;;34.71;16.56
80839;BME280;70253;50.262;-5.062;2023-07-13T05:09:24;101463.36;;;34.98;16.47
80839;BME280;70253;50.262;-5.062;2023-07-13T05:11:50;101469.42;;;34.76;16.47
80839;BME280;70253;50.262;-5.062;2023-07-13T05:14:15;101474.14;;;34.99;16.49
80839;BME280;70253;50.262;-5.062;2023-07-13T05:16:40;101476.24;;;34.68;16.56
80839;BME280;70253;50.262;-5.062;2023-07-13T05:19:06;101479.18;;;34.66;16.55
80839;BME280;70253;50.262;-5.062;2023-07-13T05:21:31;101477.35;;;34.88;16.55
80839;BME280;70253;50.262;-5.062;2023-07-13T05:23:57;101479.52;;;34.85;16.55
80839;BME280;70253;50.262;-5.062;2023-07-13T05:26:22;101482.67;;;34.96;16.49
80839;BME280;70253;50.262;-5.062;2023-07-13T05:28:47;101485.83;;;34.68;16.48
80839;BME280;70253;50.262;-5.062;2023-07-13T05:31:13;101488.86;;;34.91;16.51
80839;BME280;70253;50.262;-5.062;2023-07-13T05:33:38;101491.36;;;34.65;16.53
80839;BME280;70253;50.262;-5.062;2023-07-13T05:36:04;101498.79;;;34.63;16.57
80839;BME280;70253;50.262;-5.062;2023-07-13T05:38:29;101500.48;;;34.84;16.63
80839;BME280;70253;50.262;-5.062;2023-07-13T05:40:55;101501.42;;;34.86;16.61
80839;BME280;70253;50.262;-5.062;2023-07-13T05:43:20;101503.92;;;34.64;16.59
80839;BME280;70253;50.262;-5.062;2023-07-13T05:45:45;101504.80;;;34.86;16.59
80839;BME280;70253;50.262;-5.062;2023-07-13T05:48:10;101503.95;;;34.85;16.60
80839;BME280;70253;50.262;-5.062;2023-07-13T05:50:36;101502.84;;;34.60;16.61
80839;BME280;70253;50.262;-5.062;2023-07-13T05:53:01;101505.80;;;34.60;16.58
80839;BME280;70253;50.262;-5.062;2023-07-13T05:55:27;101510.88;;;34.85;16.55
80839;BME280;70253;50.262;-5.062;2023-07-13T05:57:52;101508.79;;;34.59;16.58
80839;BME280;70253;50.262;-5.062;2023-07-13T06:00:18;101509.83;;;34.59;16.60
80839;BME280;70253;50.262;-5.062;2023-07-13T06:02:43;101510.68;;;34.84;16.58
80839;BME280;70253;50.262;-5.062;2023-07-13T06:05:09;101508.87;;;34.78;16.65
80839;BME280;70253;50.262;-5.062;2023-07-13T06:07:34;101507.53;;;34.57;16.64
80839;BME280;70253;50.262;-5.062;2023-07-13T06:09:59;101508.40;;;35.07;16.61
80839;BME280;70253;50.262;-5.062;2023-07-13T06:12:24;101506.43;;;34.59;16.63
80839;BME280;70253;50.262;-5.062;2023-07-13T06:14:50;101510.19;;;34.79;16.64
80839;BME280;70253;50.262;-5.062;2023-07-13T06:17:15;101512.12;;;34.78;16.65
80839;BME280;70253;50.262;-5.062;2023-07-13T06:19:40;101512.07;;;34.59;16.62
80839;BME280;70253;50.262;-5.062;2023-07-13T06:22:06;101513.86;;;35.13;16.59
80839;BME280;70253;50.262;-5.062;2023-07-13T06:24:31;101512.52;;;34.88;16.61
80839;BME280;70253;50.262;-5.062;2023-07-13T06:26:56;101509.41;;;34.60;16.63
80839;BME280;70253;50.262;-5.062;2023-07-13T06:29:22;101510.93;;;34.62;16.63
80839;BME280;70253;50.262;-5.062;2023-07-13T06:31:47;101510.60;;;34.59;16.64
80839;BME280;70253;50.262;-5.062;2023-07-13T06:34:13;101509.36;;;34.85;16.66
80839;BME280;70253;50.262;-5.062;2023-07-13T06:36:38;101514.41;;;34.61;16.68
80839;BME280;70253;50.262;-5.062;2023-07-13T06:39:03;101514.95;;;34.62;16.67
80839;BME280;70253;50.262;-5.062;2023-07-13T06:41:29;101517.65;;;34.84;16.66
80839;BME280;70253;50.262;-5.062;2023-07-13T06:43:54;101521.95;;;34.61;16.68
80839;BME280;70253;50.262;-5.062;2023-07-13T06:46:21;101529.40;;;34.60;16.69
80839;BME280;70253;50.262;-5.062;2023-07-13T06:48:45;101532.77;;;34.87;16.69
80839;BME280;70253;50.262;-5.062;2023-07-13T06:51:10;101532.20;;;34.66;16.71
80839;BME280;70253;50.262;-5.062;2023-07-13T06:53:36;101534.63;;;34.89;16.79
80839;BME280;70253;50.262;-5.062;2023-07-13T06:56:01;101543.85;;;34.45;17.06
80839;BME280;70253;50.262;-5.062;2023-07-13T06:58:27;101548.04;;;34.70;17.11
80839;BME280;70253;50.262;-5.062;2023-07-13T07:00:52;101546.81;;;34.54;17.02
80839;BME280;70253;50.262;-5.062;2023-07-13T07:03:17;101546.58;;;34.65;16.92
80839;BME280;70253;50.262;-5.062;2023-07-13T07:05:43;101551.53;;;34.89;16.89
80839;BME280;70253;50.262;-5.062;2023-07-13T07:08:08;101557.81;;;34.89;16.95
80839;BME280;70253;50.262;-5.062;2023-07-13T07:10:34;101558.72;;;35.15;16.93
80839;BME280;70253;50.262;-5.062;2023-07-13T07:12:59;101557.08;;;35.13;16.91
80839;BME280;70253;50.262;-5.062;2023-07-13T07:15:24;101559.13;;;34.64;16.92
80839;BME280;70253;50.262;-5.062;2023-07-13T07:17:50;101559.56;;;34.68;16.89
80839;BME280;70253;50.262;-5.062;2023-07-13T07:20:15;101560.35;;;35.15;16.92
80839;BME280;70253;50.262;-5.062;2023-07-13T07:22:41;101562.09;;;34.66;16.96
80839;BME280;70253;50.262;-5.062;2023-07-13T07:25:07;101561.52;;;34.94;16.94
80839;BME280;70253;50.262;-5.062;2023-07-13T07:27:32;101569.07;;;34.70;16.95
80839;BME280;70253;50.262;-5.062;2023-07-13T07:29:57;101573.94;;;34.68;16.99
80839;BME280;70253;50.262;-5.062;2023-07-13T07:32:23;101572.71;;;34.92;17.03
80839;BME280;70253;50.262;-5.062;2023-07-13T07:34:47;101575.84;;;34.67;17.08
80839;BME280;70253;50.262;-5.062;2023-07-13T07:37:14;101578.77;;;34.66;17.05
80839;BME280;70253;50.262;-5.062;2023-07-13T07:39:38;101574.92;;;34.85;17.10
80839;BME280;70253;50.262;-5.062;2023-07-13T07:42:04;101575.42;;;34.60;17.09
80839;BME280;70253;50.262;-5.062;2023-07-13T07:44:30;101579.35;;;34.68;17.03
80839;BME280;70253;50.262;-5.062;2023-07-13T07:46:54;101585.03;;;34.86;17.16
80839;BME280;70253;50.262;-5.062;2023-07-13T07:49:20;101590.25;;;34.59;17.69
80839;BME280;70253;50.262;-5.062;2023-07-13T07:51:45;101593.58;;;34.49;17.65
80839;BME280;70253;50.262;-5.062;2023-07-13T07:54:10;101593.26;;;34.82;17.63
80839;BME280;70253;50.262;-5.062;2023-07-13T07:56:36;101600.19;;;34.79;17.99
80839;BME280;70253;50.262;-5.062;2023-07-13T07:59:01;101594.25;;;34.72;18.50
80839;BME280;70253;50.262;-5.062;2023-07-13T08:01:27;101592.15;;;34.49;18.60
80839;BME280;70253;50.262;-5.062;2023-07-13T08:03:52;101589.43;;;34.48;18.68
80839;BME280;70253;50.262;-5.062;2023-07-13T08:06:18;101590.51;;;34.39;18.66
80839;BME280;70253;50.262;-5.062;2023-07-13T08:08:52;101589.43;;;34.66;18.59
80839;BME280;70253;50.262;-5.062;2023-07-13T08:11:10;101588.23;;;34.53;18.80
80839;BME280;70253;50.262;-5.062;2023-07-13T08:13:34;101592.01;;;34.45;18.86
80839;BME280;70253;50.262;-5.062;2023-07-13T08:16:00;101593.12;;;34.20;18.85
80839;BME280;70253;50.262;-5.062;2023-07-13T08:18:24;101598.26;;;34.61;18.87
80839;BME280;70253;50.262;-5.062;2023-07-13T08:20:49;101601.32;;;34.29;18.90
80839;BME280;70253;50.262;-5.062;2023-07-13T08:23:15;101602.97;;;34.32;18.83
80839;BME280;70253;50.262;-5.062;2023-07-13T08:25:40;101604.47;;;34.52;18.86
80839;BME280;70253;50.262;-5.062;2023-07-13T08:28:05;101611.71;;;34.49;18.91
80839;BME280;70253;50.262;-5.062;2023-07-13T08:30:31;101608.59;;;34.46;19.00
80839;BME280;70253;50.262;-5.062;2023-07-13T08:32:57;101612.13;;;33.96;19.00
80839;BME280;70253;50.262;-5.062;2023-07-13T08:35:22;101621.36;;;33.97;18.96
80839;BME280;70253;50.262;-5.062;2023-07-13T08:37:47;101631.61;;;34.42;18.99
80839;BME280;70253;50.262;-5.062;2023-07-13T08:40:13;101624.20;;;34.21;19.00
80839;BME280;70253;50.262;-5.062;2023-07-13T08:42:42;101617.76;;;34.17;19.10
80839;BME280;70253;50.262;-5.062;2023-07-13T08:45:15;101619.12;;;34.46;19.15
80839;BME280;70253;50.262;-5.062;2023-07-13T08:47:30;101616.43;;;34.42;19.20
80839;BME280;70253;50.262;-5.062;2023-07-13T08:49:54;101610.59;;;34.35;19.38
80839;BME280;70253;50.262;-5.062;2023-07-13T08:52:30;101610.11;;;34.34;19.40
80839;BME280;70253;50.262;-5.062;2023-07-13T08:54:49;101611.82;;;34.33;19.42
80839;BME280;70253;50.262;-5.062;2023-07-13T08:57:13;101619.55;;;34.32;19.46
80839;BME280;70253;50.262;-5.062;2023-07-13T08:59:35;101616.62;;;34.34;19.44
80839;BME280;70253;50.262;-5.062;2023-07-13T09:04:29;101625.42;;;34.29;19.53
80839;BME280;70253;50.262;-5.062;2023-07-13T09:07:01;101631.47;;;34.27;19.48
80839;BME280;70253;50.262;-5.062;2023-07-13T09:09:25;101629.54;;;34.28;19.36
80839;BME280;70253;50.262;-5.062;2023-07-13T09:11:49;101632.24;;;34.25;19.29
80839;BME280;70253;50.262;-5.062;2023-07-13T09:16:34;101634.60;;;33.96;19.33
80839;BME280;70253;50.262;-5.062;2023-07-13T09:19:02;101638.71;;;34.26;19.26
80839;BME280;70253;50.262;-5.062;2023-07-13T09:21:27;101633.87;;;34.08;19.12
80839;BME280;70253;50.262;-5.062;2023-07-13T09:23:52;101635.59;;;34.30;19.07
80839;BME280;70253;50.262;-5.062;2023-07-13T09:26:18;101635.56;;;34.06;19.12
80839;BME280;70253;50.262;-5.062;2023-07-13T09:28:42;101641.57;;;34.11;19.01
80839;BME280;70253;50.262;-5.062;2023-07-13T09:31:08;101641.80;;;34.34;18.93
80839;BME280;70253;50.262;-5.062;2023-07-13T09:33:30;101643.63;;;34.10;18.91
80839;BME280;70253;50.262;-5.062;2023-07-13T09:35:56;101647.55;;;34.37;18.79
80839;BME280;70253;50.262;-5.062;2023-07-13T09:38:23;101650.56;;;34.16;18.76
80839;BME280;70253;50.262;-5.062;2023-07-13T09:43:14;101655.74;;;34.15;18.60
80839;BME280;70253;50.262;-5.062;2023-07-13T09:45:37;101651.67;;;34.40;18.60
80839;BME280;70253;50.262;-5.062;2023-07-13T09:48:06;101651.70;;;33.98;18.54
80839;BME280;70253;50.262;-5.062;2023-07-13T09:50:28;101652.65;;;34.61;18.40
80839;BME280;70253;50.262;-5.062;2023-07-13T09:52:53;101654.33;;;34.13;18.31
80839;BME280;70253;50.262;-5.062;2023-07-13T09:55:25;101654.77;;;34.59;18.25
80839;BME280;70253;50.262;-5.062;2023-07-13T09:57:47;101655.21;;;34.62;18.15
80839;BME280;70253;50.262;-5.062;2023-07-13T10:02:36;101665.79;;;34.65;18.04
80839;BME280;70253;50.262;-5.062;2023-07-13T10:05:02;101661.55;;;34.49;17.64
80839;BME280;70253;50.262;-5.062;2023-07-13T10:07:27;101665.68;;;34.69;17.50
80839;BME280;70253;50.262;-5.062;2023-07-13T10:09:53;101672.02;;;34.44;17.51
80839;BME280;70253;50.262;-5.062;2023-07-13T10:12:16;101672.58;;;34.41;17.54
80839;BME280;70253;50.262;-5.062;2023-07-13T10:14:42;101674.73;;;34.62;17.27
80839;BME280;70253;50.262;-5.062;2023-07-13T10:17:12;101672.61;;;34.48;17.26
80839;BME280;70253;50.262;-5.062;2023-07-13T10:19:34;101669.31;;;34.43;17.29
80839;BME280;70253;50.262;-5.062;2023-07-13T10:22:00;101671.68;;;34.67;17.39
80839;BME280;70253;50.262;-5.062;2023-07-13T10:24:25;101674.16;;;34.44;17.58
80839;BME280;70253;50.262;-5.062;2023-07-13T10:26:54;101670.40;;;34.48;17.66
80839;BME280;70253;50.262;-5.062;2023-07-13T10:29:14;101671.57;;;34.32;17.66
80839;BME280;70253;50.262;-5.062;2023-07-13T10:31:40;101678.85;;;34.63;17.67
80839;BME280;70253;50.262;-5.062;2023-07-13T10:34:07;101681.75;;;34.71;17.68
80839;BME280;70253;50.262;-5.062;2023-07-13T10:36:34;101681.56;;;34.51;17.52
80839;BME280;70253;50.262;-5.062;2023-07-13T10:38:57;101687.97;;;34.73;17.54
80839;BME280;70253;50.262;-5.062;2023-07-13T10:41:22;101688.93;;;34.72;17.56
80839;BME280;70253;50.262;-5.062;2023-07-13T10:43:51;101684.37;;;34.70;17.53
80839;BME280;70253;50.262;-5.062;2023-07-13T10:46:14;101686.63;;;34.50;17.57
80839;BME280;70253;50.262;-5.062;2023-07-13T10:48:39;101686.49;;;34.54;17.65
80839;BME280;70253;50.262;-5.062;2023-07-13T10:51:05;101686.49;;;34.62;17.57
80839;BME280;70253;50.262;-5.062;2023-07-13T10:53:30;101695.33;;;34.89;17.59
80839;BME280;70253;50.262;-5.062;2023-07-13T10:56:00;101702.48;;;34.67;17.65
80839;BME280;70253;50.262;-5.062;2023-07-13T10:58:20;101693.38;;;34.48;17.59
80839;BME280;70253;50.262;-5.062;2023-07-13T11:00:48;101690.88;;;34.48;17.18
80839;BME280;70253;50.262;-5.062;2023-07-13T11:03:14;101696.05;;;34.74;16.79
80839;BME280;70253;50.262;-5.062;2023-07-13T11:05:34;101691.89;;;34.72;16.73
80839;BME280;70253;50.262;-5.062;2023-07-13T11:12:53;101688.68;;;34.69;16.89
80839;BME280;70253;50.262;-5.062;2023-07-13T11:15:42;101685.43;;;34.66;16.93
80839;BME280;70253;50.262;-5.062;2023-07-13T11:17:48;101687.20;;;35.17;16.91
80839;BME280;70253;50.262;-5.062;2023-07-13T11:25:01;101675.35;;;34.80;16.93
80839;BME280;70253;50.262;-5.062;2023-07-13T11:29:48;101679.02;;;34.78;16.99
80839;BME280;70253;50.262;-5.062;2023-07-13T11:32:22;101678.91;;;34.79;16.92
80839;BME280;70253;50.262;-5.062;2023-07-13T11:34:39;101677.24;;;34.82;16.81
80839;BME280;70253;50.262;-5.062;2023-07-13T11:37:11;101676.74;;;34.57;16.94
80839;BME280;70253;50.262;-5.062;2023-07-13T11:39:31;101676.41;;;35.06;16.80
80839;BME280;70253;50.262;-5.062;2023-07-13T11:41:57;101683.76;;;35.06;16.91
80839;BME280;70253;50.262;-5.062;2023-07-13T11:44:22;101675.46;;;34.82;16.81
80839;BME280;70253;50.262;-5.062;2023-07-13T11:46:47;101678.23;;;34.89;16.62
80839;BME280;70253;50.262;-5.062;2023-07-13T11:49:16;101684.08;;;34.66;16.45
80839;BME280;70253;50.262;-5.062;2023-07-13T11:51:37;101679.22;;;34.97;16.45
80839;BME280;70253;50.262;-5.062;2023-07-13T11:54:05;101678.01;;;34.76;16.29
80839;BME280;70253;50.262;-5.062;2023-07-13T11:56:27;101679.34;;;34.94;16.39
80839;BME280;70253;50.262;-5.062;2023-07-13T11:58:54;101683.98;;;34.92;16.33
80839;BME280;70253;50.262;-5.062;2023-07-13T12:01:21;101678.42;;;34.98;16.23
80839;BME280;70253;50.262;-5.062;2023-07-13T12:03:44;101678.11;;;34.96;16.25
80839;BME280;70253;50.262;-5.062;2023-07-13T12:08:38;101676.11;;;34.91;16.43
80839;BME280;70253;50.262;-5.062;2023-07-13T12:11:04;101677.87;;;34.88;16.47
80839;BME280;70253;50.262;-5.062;2023-07-13T12:13:27;101672.48;;;34.89;16.39
80839;BME280;70253;50.262;-5.062;2023-07-13T12:15:51;101668.20;;;34.72;16.33
80839;BME280;70253;50.262;-5.062;2023-07-13T12:18:19;101660.74;;;35.01;16.38
80839;BME280;70253;50.262;-5.062;2023-07-13T12:20:41;101662.48;;;35.01;16.42
80839;BME280;70253;50.262;-5.062;2023-07-13T12:23:19;101656.04;;;35.00;16.49
80839;BME280;70253;50.262;-5.062;2023-07-13T12:25:32;101658.77;;;35.04;16.46
80839;BME280;70253;50.262;-5.062;2023-07-13T12:27:57;101658.62;;;35.07;16.49
80839;BME280;70253;50.262;-5.062;2023-07-13T12:30:27;101659.51;;;35.08;16.55
80839;BME280;70253;50.262;-5.062;2023-07-13T12:35:17;101658.04;;;35.04;16.61
80839;BME280;70253;50.262;-5.062;2023-07-13T12:37:42;101661.32;;;34.94;16.71
80839;BME280;70253;50.262;-5.062;2023-07-13T12:40:13;101668.88;;;34.94;16.77
80839;BME280;70253;50.262;-5.062;2023-07-13T12:42:32;101667.04;;;34.90;16.80
80839;BME280;70253;50.262;-5.062;2023-07-13T12:44:59;101667.55;;;35.11;16.87
80839;BME280;70253;50.262;-5.062;2023-07-13T12:47:21;101672.86;;;34.87;16.90
80839;BME280;70253;50.262;-5.062;2023-07-13T12:49:50;101672.60;;;34.91;16.94
80839;BME280;70253;50.262;-5.062;2023-07-13T12:52:16;101670.32;;;34.87;17.07
80839;BME280;70253;50.262;-5.062;2023-07-13T12:54:39;101666.25;;;34.91;17.10
80839;BME280;70253;50.262;-5.062;2023-07-13T12:57:02;101669.16;;;34.89;17.18
80839;BME280;70253;50.262;-5.062;2023-07-13T12:59:31;101675.07;;;35.16;17.18